Houston, TX

07:34 PM CDT em 24 de Outubro de 2014 (GMT -0500)
George Bush Intercontinental-Houston Airport | Change Station
CLOSE
Current Station
Aeroporto
Location: Houston Intercontinental,
Altitude: 108 ft
Estações Meteorológicas Próximas
Alerta a Decorrer: Air Quality Alert Ozone Action Day

Elev 108 ft 29.98 °N, 95.34 °W | Updated 41 minutes ago

Céu Limpo
Céu Limpo
71 °F
Aparente 71 °F
N
6
Vento Variável Vento de NE

Hoje
Máxima -- | Mínima -- °F
--% Possibilidade de Precip.
Ontem
Máxima -- | Mínima -- °F
Precip. -- pol
7:29 AM 6:41 PM
Lua nova, 1% visible
Pressão 30.09 pol
Visibilidade 10.0 milhas
Nuvens Poucas 25000 ft
Ponto de Orvalho 57 °F
Humidade 61%
Chuva 0.00 pol
Altura de Neve Não disponível
UV 0 em vez de 12
Pólen 4.90 em vez de 12
Ozono Boa
PM2.5 Moderada
Flu Activity Local Activity
METAR KIAH 242353Z 04005KT 10SM FEW250 22/14 A3009 RMK AO2 SLP189 T02170139 10278 20217 53001

More Conditions Fewer Conditions

Pressão 30.09 pol
Visibilidade 10.0 milhas
Nuvens Poucas 25000 ft
Ponto de Orvalho 57 °F
Humidade 61%
Chuva 0.00 pol
Altura de Neve Não disponível
UV 0 em vez de 12
Pólen 4.90 em vez de 12
Ozono Boa
PM2.5 Moderada
Flu Activity Local Activity
METAR KIAH 242353Z 04005KT 10SM FEW250 22/14 A3009 RMK AO2 SLP189 T02170139 10278 20217 53001

More Conditions Fewer Conditions

10-Day Weather Forecast

Almanac

Astronomia

Oct. 24, 2014 Nascer Pôr
Hora atual 07:29 CDT 18:41 CDT
Crepúsculo civil 07:04 CDT 19:05 CDT
Crepúsculo náutico 06:36 CDT 19:33 CDT
Crepúsculo astronómico 06:09 CDT 20:01 CDT
Lua 08:07 CDT (10/24) 19:25 CDT (10/24)
Comprimento da luz visível 12h 00m
Duração do Dia
11h 11m
Tomorrow will be 1m 40s shorter.
Lua nova, 1% of the Moon is Illuminated
Hoje
Lua nova
Out 30
Quarto crescente
Nov 6
Lua cheia
Nov 14
Quarto minguante
Nov 22
Nova

Extremos de Hoje

situação na parte mais alta situação na parte mais baixa

Community

WunderPhotos

Upload Photos

1,764,727 fotografias inseridas!

WunderBlogs® & News

Nearby

Qualidade do Ar

  Qualidade do Ar Índice da Q.A. Poluente
Ontem Moderada
PM2.5
Ontem Boa
OZONE
Corrente Moderada
PM2.5
Corrente Boa
OZONE
Sexta-feira Moderada
OZONE
Sexta-feira Boa
PM10
Sábado Insalubre para Grupos Sensíveis
OZONE
Sábado Boa
PM10
Domingo Moderada
OZONE
Domingo Boa
PM10
Segunda-feira Boa
OZONE
Segunda-feira Boa
PM10
Terça-feira Boa
OZONE
Terça-feira Boa
PM10

Altura da Neve

Estação altura Altitude
Não há relatos de neve recente.

Actividade Sísmisca

Cidade Distância Mag. Hora & Data
Não há notícias de atividade sísmica recente perto de si.
Mínima magnitude apresentada é 2.5.

Temperaturas das Águas Costeiras

Local Temperatura
Eagle Point, TX 73.9 °F
USCG Freeport, TX 75.9 °F
Galveston Pier TX 73.9 °F
Galveston Bay (North Jetty), TX 75.9 °F
Rollover Pass, TX 75.9 °F

Estações Meteorológicas Próximas